createdAt,value
2022-09-07T00:00:54.855Z,18.80
2022-09-07T00:03:25.078Z,18.80
2022-09-07T00:05:53.807Z,18.80
2022-09-07T00:08:24.126Z,18.80
2022-09-07T00:10:54.311Z,18.90
2022-09-07T00:13:23.203Z,18.90
2022-09-07T00:15:51.830Z,18.80
2022-09-07T00:18:20.266Z,18.80
2022-09-07T00:20:59.305Z,18.80
2022-09-07T00:23:28.897Z,18.70
2022-09-07T00:26:01.516Z,18.60
2022-09-07T00:28:30.477Z,18.60
2022-09-07T00:30:59.126Z,18.50
2022-09-07T00:33:27.931Z,18.40
2022-09-07T00:35:59.416Z,18.40
2022-09-07T00:38:27.848Z,18.30
2022-09-07T00:40:56.071Z,18.30
2022-09-07T00:43:36.113Z,18.30
2022-09-07T00:46:05.699Z,18.20
2022-09-07T00:48:39.992Z,18.10
2022-09-07T00:51:14.120Z,18.10
2022-09-07T00:53:46.131Z,18.10
2022-09-07T00:56:14.890Z,18.10
2022-09-07T00:58:45.220Z,18.00
2022-09-07T01:01:14.011Z,18.00
2022-09-07T01:03:46.476Z,17.90
2022-09-07T01:06:18.596Z,17.90
2022-09-07T01:08:49.736Z,17.90
2022-09-07T01:11:20.552Z,18.00
2022-09-07T01:13:51.063Z,18.10
2022-09-07T01:16:37.770Z,18.10
2022-09-07T01:19:26.008Z,18.20
2022-09-07T01:22:05.384Z,18.20
2022-09-07T01:24:42.071Z,18.30
2022-09-07T01:27:39.243Z,18.40
2022-09-07T01:30:09.290Z,18.40
2022-09-07T01:32:50.476Z,18.50
2022-09-07T01:35:24.731Z,18.60
2022-09-07T01:38:01.660Z,18.60
2022-09-07T01:40:37.479Z,18.70
2022-09-07T01:43:13.945Z,18.80
2022-09-07T01:45:45.485Z,18.90
2022-09-07T01:48:18.591Z,18.90
2022-09-07T01:50:52.944Z,18.90
2022-09-07T01:53:27.596Z,18.90
2022-09-07T01:55:59.496Z,18.90
2022-09-07T01:58:33.891Z,18.90
2022-09-07T02:01:07.708Z,18.90
2022-09-07T02:03:40.719Z,18.80
2022-09-07T02:06:15.406Z,18.80
2022-09-07T02:08:48.487Z,18.80
2022-09-07T02:11:20.987Z,18.90
2022-09-07T02:13:54.611Z,19.00
2022-09-07T02:16:26.800Z,19.00
2022-09-07T02:18:57.655Z,19.10
2022-09-07T02:21:31.931Z,19.10
2022-09-07T02:24:06.261Z,19.10
2022-09-07T02:26:37.976Z,19.10
2022-09-07T02:29:08.278Z,19.10
2022-09-07T02:31:36.541Z,19.10
2022-09-07T02:34:05.363Z,19.20
2022-09-07T02:36:39.634Z,19.20
2022-09-07T02:39:08.175Z,19.20
2022-09-07T02:41:38.404Z,19.20
2022-09-07T02:44:11.725Z,19.20
2022-09-07T02:47:06.771Z,19.20
2022-09-07T02:49:47.208Z,19.30
2022-09-07T02:52:25.718Z,19.30
2022-09-07T02:55:01.116Z,19.30
2022-09-07T02:57:41.788Z,19.30
2022-09-07T03:00:14.714Z,19.30
2022-09-07T03:02:52.145Z,19.30
2022-09-07T03:05:24.829Z,19.30
2022-09-07T03:07:57.697Z,19.40
2022-09-07T03:10:26.111Z,19.40
2022-09-07T03:12:54.283Z,19.40
2022-09-07T03:15:27.109Z,19.40
2022-09-07T03:17:55.592Z,19.40
2022-09-07T03:20:24.237Z,19.40
2022-09-07T03:22:53.219Z,19.50
2022-09-07T03:25:23.053Z,19.40
2022-09-07T03:27:51.375Z,19.50
2022-09-07T03:30:19.863Z,19.50
2022-09-07T03:32:49.385Z,19.50
2022-09-07T03:35:18.004Z,19.50
2022-09-07T03:37:46.497Z,19.60
2022-09-07T03:40:16.367Z,19.50
2022-09-07T03:42:48.562Z,19.50
2022-09-07T03:45:16.959Z,19.50
2022-09-07T03:47:45.391Z,19.50
2022-09-07T03:50:14.967Z,19.50
2022-09-07T03:52:43.134Z,19.50
2022-09-07T03:55:11.715Z,19.40
2022-09-07T03:57:40.385Z,19.40
2022-09-07T04:00:09.580Z,19.30
2022-09-07T04:02:40.738Z,19.30
2022-09-07T04:05:09.783Z,19.20
2022-09-07T04:07:39.438Z,19.20
2022-09-07T04:10:08.441Z,19.10
2022-09-07T04:12:36.642Z,19.10
2022-09-07T04:15:05.199Z,19.10
2022-09-07T04:17:33.352Z,19.10
2022-09-07T04:20:01.572Z,19.20
2022-09-07T04:22:29.770Z,19.10
2022-09-07T04:24:59.291Z,19.10
2022-09-07T04:27:27.614Z,19.10
2022-09-07T04:29:55.788Z,19.10
2022-09-07T04:32:23.970Z,19.10
2022-09-07T04:34:54.390Z,19.10
2022-09-07T04:37:22.693Z,19.10
2022-09-07T04:39:51.835Z,19.10
2022-09-07T04:42:21.650Z,19.10
2022-09-07T04:44:50.984Z,19.10
2022-09-07T04:47:19.155Z,19.10
2022-09-07T04:49:50.934Z,19.10
2022-09-07T04:52:19.340Z,19.10
2022-09-07T04:54:50.715Z,19.10
2022-09-07T04:57:21.674Z,19.10
2022-09-07T04:59:51.928Z,19.00
2022-09-07T05:02:20.813Z,19.00
2022-09-07T05:04:49.049Z,19.00
2022-09-07T05:07:17.344Z,19.00
2022-09-07T05:09:45.708Z,18.90
2022-09-07T05:12:13.903Z,18.90
2022-09-07T05:14:42.043Z,18.90
2022-09-07T05:17:11.636Z,19.00
2022-09-07T05:19:39.860Z,19.00
2022-09-07T05:22:08.191Z,19.00
2022-09-07T05:24:37.096Z,19.00
2022-09-07T05:27:05.576Z,19.10
2022-09-07T05:32:23.640Z,19.10
2022-09-07T05:34:53.007Z,19.10
2022-09-07T05:37:21.386Z,19.10
2022-09-07T05:39:49.615Z,19.10
2022-09-07T05:42:17.799Z,19.10
2022-09-07T05:44:46.229Z,19.10
2022-09-07T05:47:14.985Z,19.10
2022-09-07T05:49:44.504Z,19.20
2022-09-07T05:52:12.912Z,19.20
2022-09-07T05:54:41.379Z,19.30
2022-09-07T05:57:12.321Z,19.30
2022-09-07T05:59:40.736Z,19.20
2022-09-07T06:02:12.002Z,19.20
2022-09-07T06:04:40.365Z,19.20
2022-09-07T06:07:21.645Z,19.20
2022-09-07T06:12:38.795Z,19.10
2022-09-07T06:15:08.153Z,19.10
2022-09-07T06:17:36.331Z,19.10
2022-09-07T06:20:06.143Z,19.10
2022-09-07T06:22:37.688Z,19.10
2022-09-07T06:25:06.737Z,19.00
2022-09-07T06:27:34.940Z,19.00
2022-09-07T06:30:03.457Z,19.00
2022-09-07T06:32:47.337Z,19.00
2022-09-07T06:35:16.539Z,18.90
2022-09-07T06:37:46.166Z,18.80
2022-09-07T06:40:14.414Z,18.80
2022-09-07T06:42:42.686Z,18.70
2022-09-07T06:45:12.886Z,18.80
2022-09-07T06:47:41.640Z,18.80
2022-09-07T06:50:10.958Z,18.80
2022-09-07T06:55:29.506Z,18.80
2022-09-07T06:57:57.848Z,18.80
2022-09-07T07:00:26.414Z,18.90
2022-09-07T07:02:54.767Z,19.00
2022-09-07T07:05:23.034Z,19.20
2022-09-07T07:07:51.207Z,19.20
2022-09-07T07:10:24.323Z,19.30
2022-09-07T07:12:57.934Z,19.40
2022-09-07T07:15:28.578Z,19.40
2022-09-07T07:18:05.077Z,19.40
2022-09-07T07:20:38.143Z,19.60
2022-09-07T07:23:08.127Z,19.70
2022-09-07T07:25:37.008Z,19.80
2022-09-07T07:30:57.111Z,19.90
2022-09-07T07:33:25.686Z,19.90
2022-09-07T07:35:53.909Z,20.10
2022-09-07T07:44:00.611Z,20.50
2022-09-07T07:46:32.337Z,20.70
2022-09-07T07:49:00.706Z,20.80
2022-09-07T07:51:29.068Z,21.00
2022-09-07T07:53:57.909Z,21.10
2022-09-07T07:56:26.377Z,21.20
2022-09-07T07:58:54.980Z,21.40
2022-09-07T08:01:24.618Z,21.40
2022-09-07T08:03:53.056Z,21.40
2022-09-07T08:06:22.215Z,21.60
2022-09-07T08:08:50.469Z,21.70
2022-09-07T08:11:20.636Z,21.60
2022-09-07T08:13:50.515Z,21.50
2022-09-07T08:16:19.751Z,21.50
2022-09-07T08:18:49.395Z,21.50
2022-09-07T08:21:18.012Z,21.40
2022-09-07T08:23:46.413Z,21.40
2022-09-07T08:26:14.596Z,21.50
2022-09-07T08:28:45.408Z,21.50
2022-09-07T08:31:15.281Z,21.60
2022-09-07T08:33:43.909Z,21.60
2022-09-07T08:36:15.936Z,21.70
2022-09-07T08:38:44.356Z,21.70
2022-09-07T08:41:39.280Z,21.80
2022-09-07T08:44:13.903Z,21.80
2022-09-07T08:46:45.712Z,21.80
2022-09-07T08:49:18.808Z,21.90
2022-09-07T08:51:51.814Z,21.90
2022-09-07T08:54:20.445Z,22.10
2022-09-07T08:59:44.956Z,22.10
2022-09-07T09:02:36.585Z,22.20
2022-09-07T09:05:21.263Z,22.30
2022-09-07T09:08:01.291Z,22.50
2022-09-07T09:10:37.973Z,22.50
2022-09-07T09:13:14.656Z,22.60
2022-09-07T09:15:54.885Z,22.60
2022-09-07T09:18:35.292Z,22.60
2022-09-07T09:21:03.996Z,22.80
2022-09-07T09:23:39.832Z,22.90
2022-09-07T09:26:12.140Z,22.90
2022-09-07T09:28:40.789Z,23.10
2022-09-07T09:31:17.833Z,23.00
2022-09-07T09:34:06.230Z,23.20
2022-09-07T09:36:36.784Z,23.30
2022-09-07T09:39:27.273Z,23.50
2022-09-07T09:41:57.490Z,23.70
2022-09-07T09:44:30.064Z,23.90
2022-09-07T09:49:46.705Z,23.90
2022-09-07T09:52:43.613Z,24.10
2022-09-07T09:55:33.736Z,24.20
2022-09-07T10:04:06.276Z,24.40
2022-09-07T10:06:34.279Z,24.40
2022-09-07T10:09:03.460Z,24.50
2022-09-07T10:14:35.501Z,24.60
2022-09-07T10:17:12.971Z,24.60
2022-09-07T10:19:43.513Z,24.70
2022-09-07T10:22:25.050Z,24.50
2022-09-07T10:24:53.227Z,24.40
2022-09-07T10:27:34.131Z,24.50
2022-09-07T10:30:05.939Z,24.40
2022-09-07T10:32:50.457Z,24.30
2022-09-07T10:35:25.170Z,24.30
2022-09-07T10:38:06.627Z,24.40
2022-09-07T10:40:36.847Z,24.50
2022-09-07T10:43:23.658Z,24.80
2022-09-07T10:46:03.542Z,25.10
2022-09-07T10:48:41.192Z,25.40
2022-09-07T10:51:15.936Z,25.60
2022-09-07T10:54:30.045Z,25.70
2022-09-07T10:56:45.696Z,25.70
2022-09-07T11:00:07.439Z,25.70
2022-09-07T11:02:25.623Z,25.50
2022-09-07T11:05:04.984Z,25.50
2022-09-07T11:07:54.556Z,25.40
2022-09-07T11:10:30.838Z,25.60
2022-09-07T11:13:02.739Z,25.50
2022-09-07T11:15:36.011Z,25.50
2022-09-07T11:18:09.431Z,25.60
2022-09-07T11:20:42.655Z,25.60
2022-09-07T11:23:19.038Z,25.60
2022-09-07T11:25:55.065Z,25.70
2022-09-07T11:28:26.634Z,25.80
2022-09-07T11:31:00.581Z,26.00
2022-09-07T11:33:32.627Z,26.20
2022-09-07T11:36:11.283Z,26.20
2022-09-07T11:38:46.698Z,26.20
2022-09-07T11:41:23.175Z,26.40
2022-09-07T11:44:01.331Z,26.60
2022-09-07T11:46:37.782Z,26.80
2022-09-07T11:49:10.784Z,26.80
2022-09-07T11:51:43.114Z,26.70
2022-09-07T11:54:37.303Z,26.80
2022-09-07T11:57:21.670Z,26.80
2022-09-07T12:00:02.895Z,26.80
2022-09-07T12:03:14.382Z,26.70
2022-09-07T12:06:13.733Z,26.70
2022-09-07T12:08:57.297Z,26.60
2022-09-07T12:11:40.901Z,26.60
2022-09-07T12:14:22.404Z,26.80
2022-09-07T12:17:23.675Z,27.00
2022-09-07T12:20:11.971Z,27.20
2022-09-07T12:23:04.546Z,27.20
2022-09-07T12:25:34.411Z,27.20
2022-09-07T12:28:03.085Z,27.10
2022-09-07T12:31:01.980Z,27.00
2022-09-07T12:33:35.728Z,27.00
2022-09-07T12:36:42.334Z,27.20
2022-09-07T12:39:25.644Z,27.30
2022-09-07T12:45:40.440Z,27.50
2022-09-07T12:48:25.428Z,27.50
2022-09-07T12:50:58.900Z,27.50
2022-09-07T12:53:33.710Z,27.30
2022-09-07T12:56:27.159Z,27.30
2022-09-07T12:59:18.908Z,27.40
2022-09-07T13:01:56.570Z,27.70
2022-09-07T13:04:56.970Z,28.10
2022-09-07T13:07:43.681Z,28.40
2022-09-07T13:10:26.564Z,28.30
2022-09-07T13:13:02.887Z,28.30
2022-09-07T13:15:38.849Z,28.20
2022-09-07T13:18:07.661Z,28.10
2022-09-07T13:20:39.800Z,27.90
2022-09-07T13:23:31.238Z,27.80
2022-09-07T13:26:01.393Z,27.70
2022-09-07T13:28:52.768Z,27.80
2022-09-07T13:31:53.070Z,27.70
2022-09-07T13:34:50.104Z,27.70
2022-09-07T13:37:24.036Z,27.80
2022-09-07T13:39:55.183Z,27.80
2022-09-07T13:42:28.939Z,27.90
2022-09-07T13:45:00.568Z,27.80
2022-09-07T13:47:49.662Z,27.80
2022-09-07T13:50:24.804Z,28.00
2022-09-07T13:53:21.427Z,28.30
2022-09-07T13:55:57.840Z,28.30
2022-09-07T13:58:30.404Z,28.40
2022-09-07T14:01:03.114Z,28.40
2022-09-07T14:03:41.292Z,28.40
2022-09-07T14:06:17.932Z,28.40
2022-09-07T14:08:49.442Z,28.40
2022-09-07T14:11:20.083Z,28.00
2022-09-07T14:14:06.623Z,28.10
2022-09-07T14:16:36.688Z,28.20
2022-09-07T14:19:16.799Z,28.10
2022-09-07T14:21:45.331Z,27.90
2022-09-07T14:24:25.928Z,27.90
2022-09-07T14:26:54.839Z,27.70
2022-09-07T14:29:29.969Z,27.50
2022-09-07T14:32:01.161Z,27.30
2022-09-07T14:34:33.653Z,27.10
2022-09-07T14:37:05.936Z,27.00
2022-09-07T14:39:39.143Z,26.90
2022-09-07T14:42:08.337Z,26.80
2022-09-07T14:44:40.289Z,26.70
2022-09-07T14:47:22.090Z,26.60
2022-09-07T14:49:53.057Z,26.40
2022-09-07T14:52:26.880Z,26.40
2022-09-07T14:54:55.270Z,26.40
2022-09-07T14:57:30.444Z,26.40
2022-09-07T14:59:59.596Z,26.40
2022-09-07T15:02:37.142Z,26.40
2022-09-07T15:05:18.527Z,26.40
2022-09-07T15:07:48.737Z,26.40
2022-09-07T15:10:27.192Z,26.40
2022-09-07T15:12:57.443Z,26.40
2022-09-07T15:15:28.187Z,26.40
2022-09-07T15:18:04.604Z,26.50
2022-09-07T15:20:41.520Z,26.40
2022-09-07T15:23:13.081Z,26.40
2022-09-07T15:25:45.457Z,26.50
2022-09-07T15:34:09.823Z,26.80
2022-09-07T15:36:39.011Z,26.80
2022-09-07T15:39:14.656Z,26.80
2022-09-07T15:41:43.045Z,27.10
2022-09-07T15:44:11.221Z,27.30
2022-09-07T15:46:39.845Z,27.50
2022-09-07T15:49:09.458Z,27.70
2022-09-07T15:54:26.055Z,27.80
2022-09-07T15:59:42.316Z,27.60
2022-09-07T16:05:00.170Z,27.10
2022-09-07T16:10:16.796Z,26.70
2022-09-07T16:13:02.713Z,26.50
2022-09-07T16:15:32.336Z,26.30
2022-09-07T16:18:00.615Z,26.10
2022-09-07T16:20:33.103Z,26.00
2022-09-07T16:23:17.459Z,25.90
2022-09-07T16:25:57.407Z,25.80
2022-09-07T16:28:26.078Z,25.70
2022-09-07T16:30:54.344Z,25.70
2022-09-07T16:33:27.049Z,25.60
2022-09-07T16:36:05.060Z,25.50
2022-09-07T16:38:48.697Z,25.60
2022-09-07T16:41:20.498Z,25.70
2022-09-07T16:43:49.448Z,25.90
2022-09-07T16:46:19.561Z,26.00
2022-09-07T16:48:48.195Z,26.10
2022-09-07T16:51:19.683Z,26.00
2022-09-07T16:53:48.922Z,25.80
2022-09-07T16:56:19.444Z,25.60
2022-09-07T16:58:49.383Z,25.40
2022-09-07T17:01:19.423Z,25.30
2022-09-07T17:03:49.509Z,25.20
2022-09-07T17:06:21.190Z,25.20
2022-09-07T17:08:49.648Z,25.10
2022-09-07T17:11:19.871Z,25.10
2022-09-07T17:13:48.820Z,25.00
2022-09-07T17:16:19.625Z,24.90
2022-09-07T17:21:40.018Z,24.80
2022-09-07T17:24:09.903Z,24.80
2022-09-07T17:26:38.344Z,24.80
2022-09-07T17:29:07.279Z,24.70
2022-09-07T17:34:25.463Z,24.50
2022-09-07T17:36:55.630Z,24.40
2022-09-07T17:39:23.812Z,24.20
2022-09-07T17:41:52.915Z,24.10
2022-09-07T17:44:21.411Z,23.90
2022-09-07T17:46:49.812Z,23.80
2022-09-07T17:49:18.151Z,23.70
2022-09-07T17:51:47.282Z,23.60
2022-09-07T17:54:17.899Z,23.50
2022-09-07T17:56:47.650Z,23.40
2022-09-07T18:02:04.056Z,23.10
2022-09-07T18:04:32.244Z,22.90
2022-09-07T18:07:00.415Z,22.80
2022-09-07T18:09:29.959Z,22.70
2022-09-07T18:11:58.117Z,22.50
2022-09-07T18:14:26.965Z,22.40
2022-09-07T18:16:55.164Z,22.30
2022-09-07T18:19:24.232Z,22.10
2022-09-07T18:21:52.367Z,22.00
2022-09-07T18:24:22.915Z,21.80
2022-09-07T18:26:54.654Z,21.70
2022-09-07T18:29:34.015Z,21.60
2022-09-07T18:32:07.984Z,21.50
2022-09-07T18:34:40.772Z,21.40
2022-09-07T18:37:09.696Z,21.30
2022-09-07T18:39:37.945Z,21.30
2022-09-07T18:42:08.104Z,21.20
2022-09-07T18:47:28.923Z,21.10
2022-09-07T18:49:58.387Z,21.10
2022-09-07T18:55:15.619Z,21.00
2022-09-07T18:57:45.210Z,20.80
2022-09-07T19:00:14.112Z,20.80
2022-09-07T19:02:43.155Z,20.70
2022-09-07T19:08:03.218Z,20.50
2022-09-07T19:10:33.890Z,20.50
2022-09-07T19:13:03.512Z,20.40
2022-09-07T19:15:37.077Z,20.30
2022-09-07T19:18:06.907Z,20.30
2022-09-07T19:20:35.514Z,20.30
2022-09-07T19:23:03.747Z,20.30
2022-09-07T19:25:31.923Z,20.40
2022-09-07T19:28:00.120Z,20.40
2022-09-07T19:30:30.384Z,20.50
2022-09-07T19:33:02.096Z,20.40
2022-09-07T19:35:36.112Z,20.50
2022-09-07T19:38:04.558Z,20.50
2022-09-07T19:40:32.786Z,20.50
2022-09-07T19:43:00.954Z,20.50
2022-09-07T19:45:30.493Z,20.50
2022-09-07T19:47:58.929Z,20.50
2022-09-07T19:50:27.113Z,20.50
2022-09-07T19:52:55.303Z,20.50
2022-09-07T19:55:23.429Z,20.50
2022-09-07T19:57:52.421Z,20.50
2022-09-07T20:00:20.671Z,20.50
2022-09-07T20:02:50.996Z,20.50
2022-09-07T20:05:19.376Z,20.50
2022-09-07T20:07:47.492Z,20.50
2022-09-07T20:10:15.914Z,20.50
2022-09-07T20:12:44.060Z,20.60
2022-09-07T20:15:12.354Z,20.60
2022-09-07T20:17:40.545Z,20.60
2022-09-07T20:20:11.020Z,20.60
2022-09-07T20:22:39.201Z,20.60
2022-09-07T20:25:12.536Z,20.60
2022-09-07T20:27:41.510Z,20.60
2022-09-07T20:30:10.648Z,20.60
2022-09-07T20:32:38.759Z,20.70
2022-09-07T20:35:07.532Z,20.60
2022-09-07T20:37:37.090Z,20.60
2022-09-07T20:40:06.316Z,20.60
2022-09-07T20:42:34.999Z,20.60
2022-09-07T20:45:03.283Z,20.60
2022-09-07T20:47:31.456Z,20.60
2022-09-07T20:49:59.675Z,20.60
2022-09-07T20:52:28.054Z,20.60
2022-09-07T20:54:57.608Z,20.50
2022-09-07T20:57:25.751Z,20.60
2022-09-07T20:59:53.878Z,20.60
2022-09-07T21:02:22.173Z,20.60
2022-09-07T21:04:50.415Z,20.50
2022-09-07T21:07:18.639Z,20.50
2022-09-07T21:09:46.899Z,20.50
2022-09-07T21:12:16.663Z,20.60
2022-09-07T21:14:45.947Z,20.50
2022-09-07T21:17:14.112Z,20.50
2022-09-07T21:19:42.248Z,20.60
2022-09-07T21:22:10.392Z,20.50
2022-09-07T21:24:38.572Z,20.60
2022-09-07T21:27:07.656Z,20.50
2022-09-07T21:29:37.175Z,20.60
2022-09-07T21:32:05.489Z,20.60
2022-09-07T21:34:33.600Z,20.60
2022-09-07T21:37:01.715Z,20.60
2022-09-07T21:39:29.919Z,20.70
2022-09-07T21:41:58.084Z,20.70
2022-09-07T21:44:26.216Z,20.70
2022-09-07T21:46:56.031Z,20.70
2022-09-07T21:49:24.239Z,20.50
2022-09-07T21:51:52.387Z,20.50
2022-09-07T21:54:20.594Z,20.50
2022-09-07T21:56:49.040Z,20.40
2022-09-07T21:59:17.202Z,20.40
2022-09-07T22:01:45.446Z,20.30
2022-09-07T22:04:15.093Z,20.30
2022-09-07T22:06:43.884Z,20.30
2022-09-07T22:09:12.072Z,20.20
2022-09-07T22:11:43.040Z,20.20
2022-09-07T22:14:15.703Z,20.10
2022-09-07T22:16:43.928Z,20.10
2022-09-07T22:19:12.143Z,20.00
2022-09-07T22:21:41.759Z,19.90
2022-09-07T22:24:15.005Z,19.70
2022-09-07T22:26:43.181Z,19.60
2022-09-07T22:29:13.102Z,19.60
2022-09-07T22:31:42.381Z,19.50
2022-09-07T22:34:11.250Z,19.50
2022-09-07T22:36:43.237Z,19.50
2022-09-07T22:39:14.110Z,19.40
2022-09-07T22:41:43.580Z,19.40
2022-09-07T22:44:13.600Z,19.40
2022-09-07T22:46:43.304Z,19.40
2022-09-07T22:49:12.981Z,19.40
2022-09-07T22:51:42.473Z,19.40
2022-09-07T22:54:10.610Z,19.30
2022-09-07T22:56:39.241Z,19.30
2022-09-07T22:59:09.235Z,19.30
2022-09-07T23:01:38.208Z,19.30
2022-09-07T23:04:07.014Z,19.40
2022-09-07T23:06:37.141Z,19.30
2022-09-07T23:09:09.308Z,19.30
2022-09-07T23:11:38.359Z,19.30
2022-09-07T23:14:08.779Z,19.30
2022-09-07T23:16:37.111Z,19.40
2022-09-07T23:19:06.233Z,19.40
2022-09-07T23:21:34.381Z,19.30
2022-09-07T23:24:03.074Z,19.30
2022-09-07T23:26:33.915Z,19.30
2022-09-07T23:29:04.336Z,19.30
2022-09-07T23:31:34.967Z,19.20
2022-09-07T23:34:03.838Z,19.10
2022-09-07T23:36:32.626Z,19.20
2022-09-07T23:39:01.606Z,19.10
2022-09-07T23:41:29.787Z,19.20
2022-09-07T23:43:59.777Z,19.10
2022-09-07T23:46:28.048Z,19.10
2022-09-07T23:48:56.253Z,19.10
2022-09-07T23:51:24.917Z,19.20
2022-09-07T23:53:53.756Z,19.20
2022-09-07T23:56:24.286Z,19.20
2022-09-07T23:58:52.764Z,19.20
